Time;durP1;ratioP1;P1;durP2;ratioP2;P2;SDS_P1;SDS_P2;PMS_P1;PMS_P2;Temp;Humidity;BMP_temperature;BMP_pressure;BME280_temperature;BME280_humidity;BME280_pressure;Samples;Min_cycle;Max_cycle;Signal;HPM_P1;HPM_P2
2021/05/08 00:02:05;;;;;;;4.28;2.27;;;;;;;3.92;72.61;100819.97;1720654;83;21141;-75
2021/05/08 00:04:32;;;;;;;3.50;2.52;;;;;;;3.89;72.65;100819.93;1709196;82;21130;-75
2021/05/08 00:07:01;;;;;;;2.95;2.35;;;;;;;3.90;72.67;100823.34;1712366;83;20995;-75
2021/05/08 00:09:28;;;;;;;4.25;2.37;;;;;;;3.88;72.68;100824.60;1717614;82;21106;-75
2021/05/08 00:11:56;;;;;;;3.72;2.08;;;;;;;3.86;72.71;100825.42;1674611;84;21164;-74
2021/05/08 00:14:26;;;;;;;4.30;2.17;;;;;;;3.85;72.80;100823.70;1663778;86;21129;-74
2021/05/08 00:16:53;;;;;;;3.58;2.27;;;;;;;3.83;72.77;100822.40;1686792;84;21130;-75
2021/05/08 00:19:21;;;;;;;4.30;2.52;;;;;;;3.84;72.89;100829.66;1653942;83;21159;-75
2021/05/08 00:21:48;;;;;;;2.35;1.82;;;;;;;3.84;72.89;100828.38;1645847;85;21104;-75
2021/05/08 00:24:14;;;;;;;3.80;2.33;;;;;;;3.83;72.72;100820.26;1696624;83;21503;-74
2021/05/08 00:26:44;;;;;;;3.17;2.52;;;;;;;3.83;72.90;100828.79;1677267;84;20994;-74
2021/05/08 00:29:10;;;;;;;2.25;2.05;;;;;;;3.81;72.92;100825.35;1673409;83;20972;-74
2021/05/08 00:31:37;;;;;;;3.17;2.30;;;;;;;3.82;72.91;100829.63;1659335;86;20970;-74
2021/05/08 00:34:04;;;;;;;3.62;2.60;;;;;;;3.81;72.87;100835.58;1679024;84;20995;-74
2021/05/08 00:36:34;;;;;;;3.22;2.42;;;;;;;3.80;72.91;100832.58;1676146;84;21127;-74
2021/05/08 00:39:03;;;;;;;4.67;2.50;;;;;;;3.83;73.05;100823.67;1692604;84;21118;-75
2021/05/08 00:41:30;;;;;;;3.37;2.72;;;;;;;3.86;73.14;100825.00;1664135;86;20972;-75
2021/05/08 00:43:58;;;;;;;2.95;2.50;;;;;;;3.91;73.15;100836.58;1670517;84;21143;-74
2021/05/08 00:46:26;;;;;;;3.33;2.40;;;;;;;3.96;73.22;100837.51;1685760;84;21433;-74
2021/05/08 00:48:56;;;;;;;2.90;2.60;;;;;;;4.03;73.17;100839.31;1688295;83;21458;-74
2021/05/08 00:51:22;;;;;;;3.42;2.50;;;;;;;4.08;73.18;100839.38;1679106;84;21009;-74
2021/05/08 00:53:49;;;;;;;2.90;2.58;;;;;;;4.13;73.19;100837.75;1668763;84;20988;-74
2021/05/08 00:56:15;;;;;;;3.40;2.83;;;;;;;4.17;73.20;100842.89;1692227;84;21432;-75
2021/05/08 00:58:42;;;;;;;5.87;2.67;;;;;;;4.20;73.24;100839.52;1676758;84;21184;-74
2021/05/08 01:01:09;;;;;;;4.70;2.80;;;;;;;4.22;73.29;100843.81;1640651;85;21166;-74
2021/05/08 01:03:35;;;;;;;3.20;2.90;;;;;;;4.26;73.29;100840.46;1659953;86;21594;-74
2021/05/08 01:06:02;;;;;;;3.05;2.67;;;;;;;4.27;73.10;100846.44;1661773;85;21293;-74
2021/05/08 01:08:28;;;;;;;2.55;2.33;;;;;;;4.24;73.25;100842.56;1665925;86;21510;-74
2021/05/08 01:10:55;;;;;;;3.58;3.02;;;;;;;4.25;73.10;100844.28;1654461;85;21206;-74
2021/05/08 01:13:24;;;;;;;3.27;2.72;;;;;;;4.22;73.28;100850.22;1662292;85;21209;-74
2021/05/08 01:15:50;;;;;;;3.90;2.37;;;;;;;4.23;73.29;100847.23;1665784;84;21216;-74
2021/05/08 01:18:17;;;;;;;3.20;2.90;;;;;;;4.20;73.22;100858.72;1642304;86;21105;-74
2021/05/08 01:20:50;;;;;;;3.27;2.70;;;;;;;4.19;73.28;100856.99;1644952;85;21269;-74
2021/05/08 01:23:18;;;;;;;4.62;2.95;;;;;;;4.17;73.24;100853.55;1652603;85;21206;-73
2021/05/08 01:25:44;;;;;;;3.80;2.70;;;;;;;4.14;73.30;100859.52;1664955;86;21145;-74
2021/05/08 01:28:12;;;;;;;3.30;2.90;;;;;;;4.11;73.25;100858.20;1662207;85;21030;-74
2021/05/08 01:30:42;;;;;;;3.17;2.70;;;;;;;4.08;73.27;100867.11;1648592;84;21019;-74
2021/05/08 01:33:08;;;;;;;3.10;2.80;;;;;;;4.02;73.11;100862.32;1666269;86;21142;-74
2021/05/08 01:35:36;;;;;;;3.33;2.45;;;;;;;3.94;73.30;100860.51;1653014;85;21459;-74
2021/05/08 01:38:03;;;;;;;3.80;2.85;;;;;;;3.95;73.36;100869.05;1660645;86;21454;-74
2021/05/08 01:40:45;;;;;;;3.05;2.45;;;;;;;3.94;73.42;100873.30;1657189;86;21046;-75
2021/05/08 01:43:11;;;;;;;3.50;2.72;;;;;;;3.92;73.35;100872.42;1664348;85;23661;-75
2021/05/08 01:45:38;;;;;;;4.00;2.70;;;;;;;3.87;73.28;100872.77;1654947;85;21471;-75
2021/05/08 01:48:10;;;;;;;2.80;2.58;;;;;;;3.84;73.42;100870.58;1665647;86;21544;-75
2021/05/08 01:50:36;;;;;;;2.55;2.35;;;;;;;3.85;73.47;100878.69;1667291;86;21026;-74
2021/05/08 01:53:03;;;;;;;3.50;2.40;;;;;;;3.85;73.52;100873.58;1667063;85;21020;-74
2021/05/08 01:55:32;;;;;;;2.77;2.58;;;;;;;3.80;73.29;100873.50;1660650;86;21010;-74
2021/05/08 01:57:59;;;;;;;3.10;2.85;;;;;;;3.76;73.49;100875.58;1652735;84;21158;-74
2021/05/08 02:00:40;;;;;;;2.98;2.67;;;;;;;3.76;73.49;100876.85;1662431;85;21018;-74
2021/05/08 02:03:06;;;;;;;4.72;2.72;;;;;;;3.73;73.43;100880.64;1629012;85;20991;-74
2021/05/08 02:05:35;;;;;;;3.67;2.75;;;;;;;3.72;73.53;100881.47;1646760;85;21464;-74
2021/05/08 02:08:04;;;;;;;2.72;2.52;;;;;;;3.68;73.53;100876.28;1642716;85;21152;-74
2021/05/08 02:10:31;;;;;;;3.80;3.50;;;;;;;3.68;73.53;100878.84;1660355;85;21136;-74
2021/05/08 02:12:58;;;;;;;3.58;3.12;;;;;;;3.66;73.58;100883.52;1652080;86;21162;-74
2021/05/08 02:15:28;;;;;;;4.45;3.00;;;;;;;3.63;73.46;100878.80;1652386;86;21001;-74
2021/05/08 02:17:54;;;;;;;2.77;2.58;;;;;;;3.59;73.49;100886.84;1646268;86;21170;-74
2021/05/08 02:20:27;;;;;;;3.45;2.80;;;;;;;3.56;73.51;100888.48;1646166;86;21021;-74
2021/05/08 02:23:04;;;;;;;5.58;3.55;;;;;;;3.53;73.53;100888.42;1648826;86;20962;-74
2021/05/08 02:25:30;;;;;;;3.10;2.70;;;;;;;3.52;73.68;100889.27;1626554;86;21154;-74
2021/05/08 02:27:58;;;;;;;;;;;;;;;3.53;73.64;100894.82;1629919;86;21417;-74
2021/05/08 02:30:28;;;;;;;4.25;3.85;;;;;;;3.51;73.76;100896.07;1623790;86;20583;-74
2021/05/08 02:32:55;;;;;;;3.58;3.22;;;;;;;3.49;73.69;100893.05;1646217;85;21014;-74
2021/05/08 02:35:23;;;;;;;4.10;3.62;;;;;;;3.48;73.71;100895.16;1636252;86;21017;-74
2021/05/08 02:37:54;;;;;;;4.10;3.25;;;;;;;3.50;73.83;100896.91;1632815;87;21499;-74
2021/05/08 02:40:24;;;;;;;4.53;3.65;;;;;;;3.52;73.76;100904.60;1638429;86;21158;-75
2021/05/08 02:42:51;;;;;;;3.50;3.20;;;;;;;3.52;73.84;100904.60;1612964;85;21165;-75
2021/05/08 02:45:20;;;;;;;5.92;3.87;;;;;;;3.51;73.76;100907.58;1624229;87;21143;-74
2021/05/08 02:47:49;;;;;;;4.50;3.72;;;;;;;3.51;73.77;100909.27;1639841;86;21048;-75
2021/05/08 02:50:18;;;;;;;3.90;3.60;;;;;;;3.50;73.84;100909.69;1636497;87;20996;-75
2021/05/08 02:52:45;;;;;;;3.55;3.25;;;;;;;3.50;73.85;100916.50;1634876;86;21504;-74
2021/05/08 02:55:14;;;;;;;4.05;3.60;;;;;;;3.50;73.83;100917.36;1641612;86;21526;-74
2021/05/08 02:57:40;;;;;;;4.08;3.58;;;;;;;3.48;73.83;100913.05;1641009;86;21005;-74
2021/05/08 03:00:13;;;;;;;4.33;3.52;;;;;;;3.47;73.90;100913.47;1637370;86;21487;-74
2021/05/08 03:02:39;;;;;;;3.83;3.45;;;;;;;3.48;73.85;100918.16;1662723;85;21389;-74
2021/05/08 03:05:08;;;;;;;6.42;3.55;;;;;;;3.42;73.72;100913.80;1664727;85;21406;-74
2021/05/08 03:07:34;;;;;;;3.87;3.47;;;;;;;3.40;73.92;100920.58;1688440;83;21164;-74
2021/05/08 03:10:00;;;;;;;4.25;2.98;;;;;;;3.41;73.94;100919.75;1663777;83;21506;-75
2021/05/08 03:12:28;;;;;;;3.90;3.42;;;;;;;3.40;73.91;100919.30;1676070;85;21454;-75
2021/05/08 03:15:00;;;;;;;3.27;3.05;;;;;;;3.40;73.98;100923.55;1660357;84;21461;-75
2021/05/08 03:17:28;;;;;;;3.42;3.12;;;;;;;3.39;73.89;100923.11;1669450;85;21131;-74
2021/05/08 03:19:55;;;;;;;3.45;3.15;;;;;;;3.37;73.83;100922.22;1688450;83;21561;-74
2021/05/08 03:22:21;;;;;;;3.58;3.27;;;;;;;3.32;73.79;100921.72;1706587;83;21519;-74
2021/05/08 03:24:47;;;;;;;4.75;3.42;;;;;;;3.30;73.89;100922.52;1698631;83;21218;-74
2021/05/08 03:27:14;;;;;;;5.42;3.75;;;;;;;3.28;73.89;100921.22;1707766;83;21719;-75
2021/05/08 03:29:43;;;;;;;3.42;2.95;;;;;;;3.28;73.96;100919.08;1656688;84;21642;-74
2021/05/08 03:32:10;;;;;;;3.60;3.30;;;;;;;3.23;73.81;100927.94;1693374;83;26087;-74
2021/05/08 03:34:36;;;;;;;4.17;3.70;;;;;;;3.23;74.05;100934.74;1695873;82;21560;-74
2021/05/08 03:37:16;;;;;;;3.25;2.95;;;;;;;3.25;74.04;100927.55;1706635;83;21531;-74
2021/05/08 03:39:43;;;;;;;3.37;3.08;;;;;;;3.24;73.89;100930.94;1705122;82;21750;-75
2021/05/08 03:42:09;;;;;;;6.92;3.40;;;;;;;3.24;73.97;100933.91;1663712;84;21423;-74
2021/05/08 03:44:36;;;;;;;3.95;3.52;;;;;;;3.20;73.91;100935.55;1701714;83;21515;-74
2021/05/08 03:47:09;;;;;;;3.70;3.40;;;;;;;3.17;73.99;100938.05;1706459;83;21492;-74
2021/05/08 03:49:37;;;;;;;4.67;3.50;;;;;;;3.20;73.99;100934.69;1713580;83;21040;-74
2021/05/08 03:52:05;;;;;;;3.92;3.42;;;;;;;3.21;74.07;100936.41;1709701;82;21535;-74
2021/05/08 03:54:32;;;;;;;4.42;3.62;;;;;;;3.22;74.06;100936.44;1712549;83;21555;-74
2021/05/08 03:56:59;;;;;;;7.65;4.67;;;;;;;3.24;74.06;100934.77;1713961;82;21445;-74
2021/05/08 03:59:26;;;;;;;4.28;3.87;;;;;;;3.27;74.13;100942.50;1697589;82;21528;-74
2021/05/08 04:01:53;;;;;;;4.42;3.85;;;;;;;3.38;74.19;100941.84;1697780;82;21523;-74
2021/05/08 04:04:20;;;;;;;4.97;4.30;;;;;;;3.46;74.26;100943.70;1708060;81;21504;-74
2021/05/08 04:06:46;;;;;;;5.42;4.00;;;;;;;3.69;74.45;100953.44;1703554;82;21547;-74
2021/05/08 04:09:13;;;;;;;4.03;3.62;;;;;;;3.90;74.40;100953.39;1705593;81;21523;-74
2021/05/08 04:11:39;;;;;;;4.47;3.83;;;;;;;4.05;74.22;100948.08;1681135;84;21400;-74
2021/05/08 04:14:06;;;;;;;4.17;3.77;;;;;;;4.20;74.22;100954.69;1654501;85;21433;-74
2021/05/08 04:16:33;;;;;;;3.92;3.60;;;;;;;4.26;74.04;100956.06;1682039;84;21435;-75
2021/05/08 04:19:03;;;;;;;4.15;3.47;;;;;;;4.37;74.18;100959.64;1665934;85;21207;-75
2021/05/08 04:21:32;;;;;;;6.25;3.47;;;;;;;4.51;74.23;100959.84;1675013;84;21066;-75
2021/05/08 04:23:58;;;;;;;4.47;3.87;;;;;;;4.60;74.28;100959.55;1655187;85;21424;-74
2021/05/08 04:26:27;;;;;;;4.90;3.70;;;;;;;4.69;74.12;100963.05;1683871;83;21092;-74
2021/05/08 04:28:53;;;;;;;3.83;3.15;;;;;;;4.74;74.18;100961.41;1650357;86;21103;-75
2021/05/08 04:31:20;;;;;;;4.28;3.10;;;;;;;4.80;74.08;100976.86;1687670;84;21417;-75
2021/05/08 04:33:59;;;;;;;3.62;3.33;;;;;;;4.78;74.00;100976.84;1676256;84;21527;-75
2021/05/08 04:36:25;;;;;;;4.97;3.65;;;;;;;4.82;74.14;100977.33;1694833;84;21528;-75
2021/05/08 04:38:54;;;;;;;3.52;3.20;;;;;;;4.88;74.20;100972.70;1659456;85;21450;-75
2021/05/08 04:41:21;;;;;;;4.70;3.67;;;;;;;4.93;74.19;100975.77;1683817;83;20972;-75
2021/05/08 04:43:47;;;;;;;7.05;3.47;;;;;;;5.01;74.25;100977.14;1691023;84;21520;-75
2021/05/08 04:46:14;;;;;;;3.85;2.47;;;;;;;5.05;74.11;100987.02;1680942;84;21456;-75
2021/05/08 04:48:41;;;;;;;3.52;3.15;;;;;;;5.08;74.04;100988.33;1684364;83;21460;-75
2021/05/08 04:51:07;;;;;;;4.17;3.17;;;;;;;5.07;74.12;100992.59;1681308;84;21128;-74
2021/05/08 04:53:34;;;;;;;4.95;3.30;;;;;;;5.15;74.22;100995.26;1656834;85;21125;-74
2021/05/08 04:56:00;;;;;;;4.47;3.25;;;;;;;5.27;74.39;101003.06;1689404;83;21430;-74
2021/05/08 04:58:27;;;;;;;4.97;4.03;;;;;;;5.42;74.44;101000.67;1658181;86;21734;-74
2021/05/08 05:00:57;;;;;;;6.85;3.80;;;;;;;5.57;74.34;101002.55;1664737;84;21421;-74
2021/05/08 05:03:24;;;;;;;3.90;3.50;;;;;;;5.81;74.53;101001.48;1677818;84;21618;-74
2021/05/08 05:05:50;;;;;;;6.25;3.87;;;;;;;6.17;74.56;101011.69;1699693;83;21408;-74
2021/05/08 05:08:20;;;;;;;3.62;3.20;;;;;;;6.69;74.74;101000.05;1680838;84;21468;-74
2021/05/08 05:10:52;;;;;;;3.20;2.90;;;;;;;7.20;74.36;101003.71;1687757;84;21147;-74
2021/05/08 05:13:24;;;;;;;6.23;3.70;;;;;;;7.55;74.05;101008.95;1686634;83;21457;-74
2021/05/08 05:15:51;;;;;;;4.55;2.80;;;;;;;7.95;74.27;101012.00;1709554;83;20972;-74
2021/05/08 05:18:18;;;;;;;4.42;3.20;;;;;;;8.42;74.06;101007.72;1717747;82;21393;-74
2021/05/08 05:20:45;;;;;;;5.80;2.83;;;;;;;8.90;73.97;101019.64;1689819;84;21398;-74
2021/05/08 05:23:11;;;;;;;;;;;;;;;9.33;73.90;101019.07;1701734;84;21423;-75
2021/05/08 05:25:39;;;;;;;3.40;2.33;;;;;;;9.67;73.68;101021.45;1691086;83;23233;-74
2021/05/08 05:28:23;;;;;;;4.03;2.60;;;;;;;10.03;73.60;101022.48;1716042;83;21416;-74
2021/05/08 05:30:50;;;;;;;4.78;3.20;;;;;;;10.35;73.07;101020.12;1712460;83;21086;-74
2021/05/08 05:33:17;;;;;;;;;;;;;;;10.69;73.20;101022.79;1705486;82;21158;-75
2021/05/08 05:35:43;;;;;;;4.75;2.87;;;;;;;10.90;73.03;101025.59;1702657;82;20484;-74
2021/05/08 05:38:09;;;;;;;3.95;2.62;;;;;;;10.93;72.67;101028.97;1703167;83;21159;-75
2021/05/08 05:40:36;;;;;;;2.87;2.20;;;;;;;10.78;72.68;101023.13;1701766;82;21031;-75
2021/05/08 05:43:03;;;;;;;6.17;1.90;;;;;;;10.84;72.60;101029.10;1705610;82;21456;-75
2021/05/08 05:45:29;;;;;;;4.87;2.17;;;;;;;11.11;73.00;101022.73;1706908;82;21178;-75
2021/05/08 05:47:59;;;;;;;6.03;2.10;;;;;;;11.25;72.60;101027.75;1716985;82;21134;-75
2021/05/08 05:50:43;;;;;;;4.70;2.12;;;;;;;11.46;72.51;101028.75;1705056;83;20963;-75
2021/05/08 05:53:15;;;;;;;4.37;1.90;;;;;;;11.49;72.77;101035.62;1677568;83;21469;-75
2021/05/08 05:55:43;;;;;;;4.00;1.50;;;;;;;11.66;72.24;101030.22;1698491;83;21436;-75
2021/05/08 05:58:09;;;;;;;5.72;2.00;;;;;;;11.39;71.94;101032.77;1687986;83;21159;-75
2021/05/08 06:00:36;;;;;;;3.92;1.75;;;;;;;11.54;72.54;101041.60;1716124;82;21118;-75
2021/05/08 06:03:02;;;;;;;2.95;1.70;;;;;;;11.98;73.25;101044.88;1720892;82;21522;-75
2021/05/08 06:05:28;;;;;;;5.12;1.82;;;;;;;12.34;72.55;101040.86;1690668;84;21124;-75
2021/05/08 06:07:55;;;;;;;3.50;2.08;;;;;;;12.42;72.60;101033.81;1678068;83;21134;-75
2021/05/08 06:10:27;;;;;;;7.20;1.98;;;;;;;12.67;72.39;101038.55;1721873;82;21447;-75
2021/05/08 06:12:53;;;;;;;5.17;1.80;;;;;;;12.84;72.15;101041.70;1716995;82;21144;-75
2021/05/08 06:15:19;;;;;;;5.92;2.30;;;;;;;12.72;71.56;101043.22;1717129;83;21126;-75
2021/05/08 06:17:46;;;;;;;4.97;2.42;;;;;;;12.45;71.31;101046.73;1703448;83;21503;-75
2021/05/08 06:20:13;;;;;;;3.92;1.72;;;;;;;12.02;71.22;101048.28;1721036;82;21001;-75
2021/05/08 06:22:39;;;;;;;3.95;1.92;;;;;;;11.75;71.63;101049.09;1676895;84;20985;-75
2021/05/08 06:25:06;;;;;;;5.35;2.17;;;;;;;11.98;71.95;101058.28;1696582;83;21373;-75
2021/05/08 06:27:33;;;;;;;5.28;2.15;;;;;;;11.67;71.17;101052.66;1704927;83;21437;-75
2021/05/08 06:29:59;;;;;;;3.40;1.67;;;;;;;11.64;71.72;101053.55;1718549;81;21355;-75
2021/05/08 06:32:25;;;;;;;9.23;1.80;;;;;;;12.07;72.31;101053.81;1714232;83;21111;-76
2021/05/08 06:34:52;;;;;;;5.15;1.67;;;;;;;12.50;72.00;101063.04;1708682;82;21128;-75
2021/05/08 06:37:18;;;;;;;;;;;;;;;12.77;71.41;101065.61;1712144;83;21474;-75
2021/05/08 06:39:45;;;;;;;5.85;3.12;;;;;;;12.37;70.41;101059.41;1715047;82;20173;-75
2021/05/08 06:42:11;;;;;;;3.83;2.00;;;;;;;12.12;71.42;101062.81;1724432;81;21127;-75
2021/05/08 06:44:37;;;;;;;2.60;1.52;;;;;;;12.55;71.62;101065.56;1707954;82;21361;-75
2021/05/08 06:47:04;;;;;;;5.17;2.17;;;;;;;12.58;70.94;101069.40;1702799;83;21171;-75
2021/05/08 06:49:30;;;;;;;8.43;3.08;;;;;;;12.39;70.81;101076.66;1717018;82;21426;-75
2021/05/08 06:51:57;;;;;;;;;;;;;;;12.08;70.94;101073.67;1721986;82;21148;-75
2021/05/08 06:54:23;;;;;;;4.80;2.05;;;;;;;12.38;71.26;101077.98;1726407;82;20262;-75
2021/05/08 06:56:50;;;;;;;4.95;1.98;;;;;;;12.51;70.99;101079.02;1714243;83;21417;-75
2021/05/08 06:59:17;;;;;;;5.30;1.92;;;;;;;12.35;70.79;101084.06;1715069;83;21012;-75
2021/05/08 07:01:43;;;;;;;5.60;1.70;;;;;;;12.46;70.88;101086.49;1714896;83;21162;-75
2021/05/08 07:04:10;;;;;;;3.20;1.47;;;;;;;12.75;71.00;101086.83;1714740;83;21389;-75
2021/05/08 07:06:36;;;;;;;6.42;2.22;;;;;;;12.71;70.68;101086.91;1720732;83;21573;-75
2021/05/08 07:09:03;;;;;;;9.08;1.85;;;;;;;12.62;70.68;101089.66;1701497;83;21131;-75
2021/05/08 07:11:32;;;;;;;4.95;1.87;;;;;;;12.84;70.65;101093.16;1675408;83;21159;-76
2021/05/08 07:13:59;;;;;;;3.85;1.77;;;;;;;12.84;71.16;101090.56;1715716;82;21169;-76
2021/05/08 07:16:25;;;;;;;4.40;1.60;;;;;;;13.32;71.33;101089.25;1721095;83;21162;-76
2021/05/08 07:18:54;;;;;;;6.47;2.27;;;;;;;13.51;70.68;101093.64;1694354;83;21158;-76
2021/05/08 07:21:21;;;;;;;6.50;2.08;;;;;;;13.08;70.37;101093.13;1691692;84;20981;-75
2021/05/08 07:23:48;;;;;;;;;;;;;;;13.19;70.64;101092.52;1699563;84;21138;-76
2021/05/08 07:26:14;;;;;;;4.30;2.37;;;;;;;13.08;69.91;101091.84;1702331;83;20224;-75
2021/05/08 07:28:40;;;;;;;8.00;2.12;;;;;;;13.08;70.69;101087.09;1719961;83;21123;-75
2021/05/08 07:31:06;;;;;;;6.58;2.20;;;;;;;13.41;70.46;101089.07;1702203;82;21162;-74
2021/05/08 07:33:33;;;;;;;6.03;2.12;;;;;;;13.44;70.15;101086.41;1714672;82;282321;-75
2021/05/08 07:35:59;;;;;;;8.00;1.85;;;;;;;13.48;70.05;101079.41;1681042;83;21195;-75
2021/05/08 07:38:25;;;;;;;5.30;1.80;;;;;;;13.64;70.19;101083.81;1679359;83;21135;-75
2021/05/08 07:40:53;;;;;;;4.28;1.80;;;;;;;13.99;70.27;101083.91;1684952;83;21158;-75
2021/05/08 07:43:20;;;;;;;5.72;1.45;;;;;;;14.25;69.94;101094.55;1681301;83;21103;-76
2021/05/08 07:45:48;;;;;;;8.93;2.67;;;;;;;14.23;69.19;101090.27;1679843;83;21158;-75
2021/05/08 07:48:14;;;;;;;5.67;2.30;;;;;;;13.87;69.41;101090.23;1679768;83;21167;-75
2021/05/08 07:50:42;;;;;;;5.60;1.85;;;;;;;13.91;69.63;101102.73;1685401;83;21139;-75
2021/05/08 07:53:08;;;;;;;;;;;;;;;13.90;69.42;101090.61;1688964;83;21172;-76
2021/05/08 07:55:35;;;;;;;5.25;2.20;;;;;;;13.91;68.82;101091.02;1684704;83;20266;-76
2021/05/08 07:58:06;;;;;;;4.92;1.67;;;;;;;13.63;68.79;101104.19;1684645;83;21156;-76
2021/05/08 08:00:32;;;;;;;5.67;1.90;;;;;;;13.51;68.99;101098.84;1686104;83;21580;-75
2021/05/08 08:02:59;;;;;;;3.83;1.90;;;;;;;13.54;69.15;101100.04;1681534;83;21404;-75
2021/05/08 08:05:25;;;;;;;3.75;1.57;;;;;;;13.73;69.03;101103.12;1686046;83;21124;-75
2021/05/08 08:07:52;;;;;;;6.65;1.72;;;;;;;13.81;68.68;101105.97;1680577;83;395487;-75
2021/05/08 08:10:18;;;;;;;5.50;1.52;;;;;;;13.97;68.83;101105.64;1684668;83;21164;-75
2021/05/08 08:12:44;;;;;;;3.77;1.57;;;;;;;13.91;68.53;101106.18;1683439;83;21235;-75
2021/05/08 08:15:13;;;;;;;6.45;1.57;;;;;;;13.89;68.34;101114.90;1681887;83;21207;-75
2021/05/08 08:17:40;;;;;;;4.42;1.65;;;;;;;13.70;67.91;101114.44;1680467;83;22589;-75
2021/05/08 08:20:10;;;;;;;3.47;1.67;;;;;;;13.48;68.21;101117.08;1679997;83;21526;-76
2021/05/08 08:22:40;;;;;;;5.55;1.52;;;;;;;13.42;68.21;101118.50;1684711;83;21671;-76
2021/05/08 08:25:09;;;;;;;3.17;1.60;;;;;;;13.61;68.47;101115.06;1665353;84;21202;-75
2021/05/08 08:27:37;;;;;;;8.00;1.50;;;;;;;13.63;67.92;101113.29;1667675;84;21191;-75
2021/05/08 08:30:13;;;;;;;5.10;1.40;;;;;;;13.30;67.51;101116.99;1664776;84;21198;-75
2021/05/08 08:32:39;;;;;;;3.62;1.12;;;;;;;13.02;67.64;101125.70;1668361;84;21247;-78
2021/05/08 08:35:08;;;;;;;3.25;1.52;;;;;;;12.83;67.55;101126.48;1665739;84;21187;-78
2021/05/08 08:37:35;;;;;;;4.00;1.62;;;;;;;12.88;67.98;101129.01;1662272;84;21222;-78
2021/05/08 08:40:01;;;;;;;3.05;1.90;;;;;;;13.01;67.79;101130.91;1665940;84;21178;-78
2021/05/08 08:42:28;;;;;;;6.30;2.10;;;;;;;13.09;67.88;101123.41;1667783;85;21190;-78
2021/05/08 08:44:58;;;;;;;3.33;1.98;;;;;;;13.11;67.65;101127.27;1681131;84;21220;-78
2021/05/08 08:47:29;;;;;;;4.35;1.57;;;;;;;13.26;67.34;101128.33;1674831;84;21210;-78
2021/05/08 08:50:03;;;;;;;4.95;1.60;;;;;;;14.02;67.27;101127.19;1686668;84;21262;-78
2021/05/08 08:52:30;;;;;;;8.78;2.30;;;;;;;14.97;67.28;101130.97;1680185;84;21242;-78
2021/05/08 08:54:57;;;;;;;;;;;;;;;15.88;67.16;101125.36;1674885;84;21190;-78
2021/05/08 08:57:33;;;;;;;4.95;1.60;;;;;;;15.71;66.17;101124.14;1679955;84;20292;-78
2021/05/08 08:59:58;;;;;;;3.77;1.47;;;;;;;15.23;66.70;101134.58;1667020;85;21234;-78
2021/05/08 09:02:28;;;;;;;2.95;1.57;;;;;;;14.55;66.51;101141.14;1663576;84;22356;-78
2021/05/08 09:04:57;;;;;;;3.47;1.47;;;;;;;14.00;66.40;101131.13;1667876;84;21200;-78
2021/05/08 09:07:29;;;;;;;6.50;1.47;;;;;;;13.47;66.31;101142.65;1664569;84;21108;-78
2021/05/08 09:09:56;;;;;;;3.10;1.52;;;;;;;13.19;66.40;101137.97;1659937;84;21122;-78
2021/05/08 09:12:29;;;;;;;6.78;1.60;;;;;;;13.56;66.46;101143.73;1656367;84;21091;-78
2021/05/08 09:14:55;;;;;;;7.30;2.35;;;;;;;13.56;66.22;101143.73;1667640;84;21182;-78
2021/05/08 09:17:26;;;;;;;4.85;1.10;;;;;;;13.46;66.22;101139.64;1667702;84;21143;-78
2021/05/08 09:20:04;;;;;;;3.00;1.42;;;;;;;13.25;65.81;101145.65;1666564;85;21138;-77
2021/05/08 09:22:40;;;;;;;8.55;2.00;;;;;;;12.96;65.68;101148.34;1666246;84;21104;-77
2021/05/08 09:25:19;;;;;;;7.00;2.33;;;;;;;12.75;65.90;101153.45;1656490;84;21127;-77
2021/05/08 09:27:51;;;;;;;4.03;1.67;;;;;;;12.71;65.81;101141.41;1666205;84;21099;-78
2021/05/08 09:30:26;;;;;;;7.97;1.82;;;;;;;12.73;65.74;101139.64;1663417;85;21198;-77
2021/05/08 09:33:04;;;;;;;2.42;1.02;;;;;;;12.76;65.68;101135.70;1657460;84;21167;-74
2021/05/08 09:35:34;;;;;;;1.67;1.27;;;;;;;12.88;65.43;101135.49;1655351;85;21210;-75
2021/05/08 09:38:18;;;;;;;4.67;1.10;;;;;;;12.86;64.86;101138.56;1663476;85;21226;-75
2021/05/08 09:40:48;;;;;;;3.55;1.32;;;;;;;12.71;64.77;101137.07;1654154;85;21260;-74
2021/05/08 09:43:17;;;;;;;5.42;1.20;;;;;;;12.64;64.70;101144.98;1663506;84;21139;-76
2021/05/08 09:45:47;;;;;;;4.42;1.60;;;;;;;12.62;64.66;101138.95;1664197;84;21141;-76
2021/05/08 09:48:26;;;;;;;3.83;1.40;;;;;;;12.42;64.21;101144.04;1662502;84;21222;-76
2021/05/08 09:51:16;;;;;;;3.12;1.47;;;;;;;12.25;64.38;101149.47;1663462;84;21134;-80
2021/05/08 09:53:43;;;;;;;5.53;1.37;;;;;;;12.19;64.51;101149.55;1665962;85;21235;-75
2021/05/08 09:56:33;;;;;;;4.53;1.67;;;;;;;12.27;64.41;101148.16;1663628;85;21183;-74
2021/05/08 09:59:36;;;;;;;3.60;1.42;;;;;;;12.31;64.28;101145.94;1655020;84;21230;-74
2021/05/08 10:02:10;;;;;;;4.17;1.40;;;;;;;12.43;64.37;101128.04;1659092;85;21194;-74
2021/05/08 10:04:49;;;;;;;2.95;1.45;;;;;;;12.64;64.08;101130.70;1641389;85;21235;-74
2021/05/08 10:07:32;;;;;;;4.42;1.05;;;;;;;12.64;63.85;101134.59;1630009;86;21252;-75
2021/05/08 10:10:00;;;;;;;3.15;1.40;;;;;;;12.68;63.64;101138.41;1633214;87;21203;-75
2021/05/08 10:12:28;;;;;;;5.33;2.20;;;;;;;12.66;63.55;101134.98;1623213;86;21253;-74
2021/05/08 10:14:59;;;;;;;4.03;1.20;;;;;;;12.62;63.40;101132.03;1651656;86;21231;-74
2021/05/08 10:17:28;;;;;;;5.25;1.52;;;;;;;12.58;63.30;101135.55;1644275;86;21689;-74
2021/05/08 10:20:07;;;;;;;3.25;1.52;;;;;;;12.55;63.12;101133.00;1643518;86;21232;-74
2021/05/08 10:22:44;;;;;;;4.22;1.92;;;;;;;12.53;63.09;101138.22;1641394;86;21230;-74
2021/05/08 10:25:13;;;;;;;2.62;1.52;;;;;;;12.46;63.03;101139.22;1639149;85;21226;-75
2021/05/08 10:27:39;;;;;;;3.47;1.77;;;;;;;12.35;62.89;101135.94;1637085;85;21239;-75
2021/05/08 10:30:10;;;;;;;3.33;1.70;;;;;;;12.35;62.99;101134.64;1637961;85;21261;-75
2021/05/08 10:32:50;;;;;;;2.75;1.40;;;;;;;12.40;63.05;101139.31;1636086;86;21203;-75
2021/05/08 10:35:42;;;;;;;3.52;1.42;;;;;;;12.45;62.80;101144.44;1629549;86;21725;-75
2021/05/08 10:38:23;;;;;;;3.30;1.30;;;;;;;12.49;62.70;101130.06;1627561;87;21193;-75
2021/05/08 10:41:02;;;;;;;5.12;1.35;;;;;;;12.56;62.62;101125.64;1644775;85;21165;-75
2021/05/08 10:43:56;;;;;;;3.72;1.60;;;;;;;12.74;62.83;101121.89;1655330;85;21018;-75
2021/05/08 10:46:24;;;;;;;1.98;1.12;;;;;;;12.94;62.73;101117.22;1638142;85;21178;-75
2021/05/08 10:49:13;;;;;;;2.05;0.90;;;;;;;13.05;62.19;101124.78;1635776;85;21142;-75
2021/05/08 10:51:58;;;;;;;2.33;1.15;;;;;;;13.06;61.99;101123.91;1634889;85;21164;-75
2021/05/08 10:54:45;;;;;;;2.95;1.40;;;;;;;13.06;61.95;101129.95;1636475;85;21196;-75
2021/05/08 10:57:19;;;;;;;2.98;0.93;;;;;;;13.03;61.78;101124.81;1639233;86;21655;-75
2021/05/08 11:00:08;;;;;;;2.42;0.95;;;;;;;13.03;61.75;101131.74;1635801;87;21169;-75
2021/05/08 11:02:49;;;;;;;3.35;1.10;;;;;;;13.04;61.71;101129.13;1638677;86;21467;-75
2021/05/08 11:05:25;;;;;;;0.85;0.62;;;;;;;12.95;61.52;101133.66;1667223;85;21155;-74
2021/05/08 11:07:53;;;;;;;2.87;1.50;;;;;;;12.89;61.51;101139.36;1656859;85;21542;-74
2021/05/08 11:10:37;;;;;;;6.35;1.75;;;;;;;12.91;61.61;101127.66;1659972;85;21107;-74
2021/05/08 11:13:16;;;;;;;3.12;1.07;;;;;;;13.03;61.70;101126.11;1658196;85;21558;-74
2021/05/08 11:16:03;;;;;;;2.67;1.27;;;;;;;13.24;61.70;101126.20;1659927;85;21171;-74
2021/05/08 11:18:39;;;;;;;3.05;1.30;;;;;;;13.35;60.95;101116.91;1655169;84;21643;-74
2021/05/08 11:21:14;;;;;;;4.35;1.02;;;;;;;13.39;61.22;101127.66;1659355;84;21223;-75
2021/05/08 11:23:52;;;;;;;4.92;1.40;;;;;;;13.46;60.86;101129.25;1661194;84;21344;-75
2021/05/08 11:26:33;;;;;;;4.58;1.37;;;;;;;13.50;60.89;101132.20;1659400;85;21211;-74
2021/05/08 11:29:03;;;;;;;7.30;1.50;;;;;;;13.50;60.66;101136.09;1678944;85;21220;-74
2021/05/08 11:31:50;;;;;;;5.22;1.35;;;;;;;13.48;60.70;101132.67;1666847;84;21214;-75
2021/05/08 11:34:26;;;;;;;5.30;1.12;;;;;;;13.35;60.36;101132.48;1674330;84;21218;-75
2021/05/08 11:37:02;;;;;;;1.52;1.02;;;;;;;13.29;60.40;101136.06;1660427;85;21235;-75
2021/05/08 11:39:38;;;;;;;2.65;1.00;;;;;;;13.27;60.44;101133.94;1661798;85;21558;-74
2021/05/08 11:42:19;;;;;;;3.93;1.23;;;;;;;13.24;60.34;101132.69;1679107;84;21142;-74
2021/05/08 11:45:00;;;;;;;2.50;1.10;;;;;;;13.25;60.51;101137.86;1661249;84;21155;-74